createdAt,value
2023-01-08T00:02:05.888Z,100525.31
2023-01-08T00:04:53.284Z,100532.25
2023-01-08T00:07:41.926Z,100531.09
2023-01-08T00:10:29.113Z,100532.06
2023-01-08T00:13:17.289Z,100510.16
2023-01-08T00:16:05.666Z,100518.81
2023-01-08T00:18:52.351Z,100506.88
2023-01-08T00:21:39.357Z,100516.53
2023-01-08T00:24:26.104Z,100505.84
2023-01-08T00:27:13.183Z,100491.16
2023-01-08T00:30:01.674Z,100502.25
2023-01-08T00:32:48.485Z,100491.72
2023-01-08T00:35:35.326Z,100494.34
2023-01-08T00:38:26.018Z,100493.53
2023-01-08T00:41:14.181Z,100494.41
2023-01-08T00:44:01.139Z,100495.53
2023-01-08T00:46:49.265Z,100487.97
2023-01-08T00:49:36.108Z,100485.44
2023-01-08T00:52:23.146Z,100476.94
2023-01-08T00:55:10.611Z,100469.47
2023-01-08T00:57:58.307Z,100464.06
2023-01-08T01:00:44.921Z,100458.78
2023-01-08T01:03:33.746Z,100470.19
2023-01-08T01:06:20.759Z,100453.88
2023-01-08T01:09:07.206Z,100467.84
2023-01-08T01:11:54.088Z,100453.97
2023-01-08T01:14:41.183Z,100455.81
2023-01-08T01:17:27.656Z,100447.25
2023-01-08T01:20:17.645Z,100446.47
2023-01-08T01:23:05.725Z,100443.00
2023-01-08T01:25:54.568Z,100441.00
2023-01-08T01:28:41.245Z,100439.69
2023-01-08T01:31:30.101Z,100452.72
2023-01-08T01:34:18.754Z,100446.53
2023-01-08T01:37:07.661Z,100443.72
2023-01-08T01:39:54.301Z,100451.94
2023-01-08T01:42:41.165Z,100452.63
2023-01-08T01:45:29.043Z,100438.22
2023-01-08T01:48:17.152Z,100435.47
2023-01-08T01:51:04.109Z,100429.41
2023-01-08T01:53:52.140Z,100423.31
2023-01-08T01:56:38.961Z,100429.34
2023-01-08T01:59:25.847Z,100431.16
2023-01-08T02:02:13.372Z,100422.56
2023-01-08T02:05:00.576Z,100419.28
2023-01-08T02:07:56.794Z,100419.31
2023-01-08T02:10:53.049Z,100400.84
2023-01-08T02:13:42.277Z,100356.75
2023-01-08T02:16:40.802Z,100404.72
2023-01-08T02:19:41.053Z,100403.72
2023-01-08T02:22:39.694Z,100397.69
2023-01-08T02:25:39.118Z,100394.19
2023-01-08T02:28:28.751Z,100385.53
2023-01-08T02:31:17.475Z,100392.69
2023-01-08T02:34:04.184Z,100385.03
2023-01-08T02:36:53.605Z,100381.59
2023-01-08T02:39:54.254Z,100376.31
2023-01-08T02:42:46.965Z,100365.78
2023-01-08T02:45:44.901Z,100356.91
2023-01-08T02:48:38.303Z,100360.66
2023-01-08T02:51:30.322Z,100349.41
2023-01-08T02:54:21.735Z,100351.00
2023-01-08T02:57:13.609Z,100364.13
2023-01-08T03:00:00.266Z,100352.88
2023-01-08T03:02:51.411Z,100350.94
2023-01-08T03:05:42.087Z,100344.38
2023-01-08T03:08:30.832Z,100347.09
2023-01-08T03:11:20.007Z,100342.00
2023-01-08T03:14:11.757Z,100343.81
2023-01-08T03:17:07.840Z,100331.72
2023-01-08T03:20:01.305Z,100328.13
2023-01-08T03:22:52.215Z,100320.19
2023-01-08T03:25:42.757Z,100326.34
2023-01-08T03:28:34.598Z,100327.38
2023-01-08T03:31:23.555Z,100324.63
2023-01-08T03:34:12.467Z,100321.06
2023-01-08T03:37:05.008Z,100327.19
2023-01-08T03:39:58.454Z,100321.16
2023-01-08T03:42:45.140Z,100315.06
2023-01-08T03:45:34.070Z,100315.84
2023-01-08T03:48:21.909Z,100300.47
2023-01-08T03:51:10.066Z,100304.59
2023-01-08T03:53:59.982Z,100290.03
2023-01-08T03:56:47.149Z,100282.22
2023-01-08T03:59:33.624Z,100316.88
2023-01-08T04:02:20.556Z,100312.44
2023-01-08T04:05:08.564Z,100303.16
2023-01-08T04:07:56.710Z,100309.38
2023-01-08T04:10:44.532Z,100321.66
2023-01-08T04:13:31.220Z,100321.00
2023-01-08T04:16:18.084Z,100312.19
2023-01-08T04:19:04.909Z,100325.44
2023-01-08T04:21:51.894Z,100328.13
2023-01-08T04:24:38.435Z,100318.34
2023-01-08T04:27:26.499Z,100310.34
2023-01-08T04:30:14.025Z,100309.53
2023-01-08T04:33:00.395Z,100320.88
2023-01-08T04:35:47.291Z,100327.13
2023-01-08T04:38:34.189Z,100325.44
2023-01-08T04:41:21.398Z,100323.59
2023-01-08T04:44:10.390Z,100320.88
2023-01-08T04:46:56.947Z,100303.38
2023-01-08T04:49:43.655Z,100300.97
2023-01-08T04:52:30.685Z,100295.66
2023-01-08T04:55:17.441Z,100277.63
2023-01-08T04:58:04.283Z,100275.81
2023-01-08T05:00:52.570Z,100265.78
2023-01-08T05:03:39.521Z,100269.53
2023-01-08T05:06:27.504Z,100266.19
2023-01-08T05:09:14.074Z,100255.69
2023-01-08T05:12:00.908Z,100253.91
2023-01-08T05:14:47.612Z,100257.25
2023-01-08T05:17:36.095Z,100260.72
2023-01-08T05:20:22.679Z,100260.56
2023-01-08T05:23:09.358Z,100272.84
2023-01-08T05:25:58.886Z,100264.25
2023-01-08T05:28:45.451Z,100265.78
2023-01-08T05:31:32.313Z,100267.44
2023-01-08T05:34:20.316Z,100267.31
2023-01-08T05:37:06.925Z,100261.41
2023-01-08T05:39:53.671Z,100245.75
2023-01-08T05:42:40.783Z,100239.63
2023-01-08T05:45:28.012Z,100241.69
2023-01-08T05:48:14.512Z,100236.25
2023-01-08T05:51:02.862Z,100241.63
2023-01-08T05:53:49.322Z,100236.34
2023-01-08T05:56:36.352Z,100232.63
2023-01-08T05:59:23.020Z,100228.47
2023-01-08T06:02:10.410Z,100229.31
2023-01-08T06:04:56.833Z,100227.91
2023-01-08T06:07:44.900Z,100235.69
2023-01-08T06:10:31.531Z,100229.56
2023-01-08T06:13:18.195Z,100222.63
2023-01-08T06:16:05.516Z,100219.09
2023-01-08T06:18:52.156Z,100218.97
2023-01-08T06:21:39.247Z,100216.94
2023-01-08T06:24:27.272Z,100213.97
2023-01-08T06:27:14.037Z,100210.59
2023-01-08T06:30:00.597Z,100208.75
2023-01-08T06:32:47.462Z,100202.44
2023-01-08T06:35:34.450Z,100204.94
2023-01-08T06:38:21.525Z,100204.94
2023-01-08T06:41:11.630Z,100210.06
2023-01-08T06:43:58.489Z,100204.69
2023-01-08T06:46:45.261Z,100203.91
2023-01-08T06:49:31.911Z,100203.56
2023-01-08T06:52:18.677Z,100211.91
2023-01-08T06:55:06.445Z,100207.53
2023-01-08T06:57:56.402Z,100203.22
2023-01-08T07:00:44.453Z,100211.84
2023-01-08T07:03:31.570Z,100215.22
2023-01-08T07:06:20.685Z,100220.34
2023-01-08T07:09:07.249Z,100213.28
2023-01-08T07:11:54.105Z,100209.81
2023-01-08T07:14:42.293Z,100213.16
2023-01-08T07:17:29.002Z,100220.06
2023-01-08T07:20:15.826Z,100213.22
2023-01-08T07:23:03.443Z,100214.94
2023-01-08T07:25:49.934Z,100210.41
2023-01-08T07:28:36.644Z,100211.25
2023-01-08T07:31:24.848Z,100210.44
2023-01-08T07:34:13.107Z,100206.00
2023-01-08T07:37:00.469Z,100198.13
2023-01-08T07:39:47.077Z,100198.78
2023-01-08T07:42:33.760Z,100191.78
2023-01-08T07:45:20.790Z,100198.13
2023-01-08T07:48:10.663Z,100204.97
2023-01-08T07:51:02.435Z,100195.81
2023-01-08T07:53:49.270Z,100191.56
2023-01-08T07:56:36.111Z,100201.16
2023-01-08T07:59:23.074Z,100201.06
2023-01-08T08:02:11.865Z,100208.75
2023-01-08T08:05:00.151Z,100202.00
2023-01-08T08:07:46.586Z,100204.72
2023-01-08T08:10:33.414Z,100208.88
2023-01-08T08:13:20.227Z,100205.38
2023-01-08T08:16:08.041Z,100204.56
2023-01-08T08:18:54.565Z,100206.19
2023-01-08T08:21:42.655Z,100196.41
2023-01-08T08:24:29.413Z,100197.97
2023-01-08T08:27:16.295Z,100200.94
2023-01-08T08:30:03.405Z,100194.50
2023-01-08T08:32:49.885Z,100188.09
2023-01-08T08:35:37.048Z,100114.25
2023-01-08T08:38:26.422Z,100179.38
2023-01-08T08:41:13.118Z,100184.56
2023-01-08T08:43:59.957Z,100184.53
2023-01-08T08:46:46.728Z,100182.00
2023-01-08T08:49:33.408Z,100185.34
2023-01-08T08:52:21.239Z,100190.97
2023-01-08T08:55:13.210Z,100178.72
2023-01-08T08:58:05.467Z,100185.47
2023-01-08T09:00:52.142Z,100178.41
2023-01-08T09:03:39.824Z,100171.47
2023-01-08T09:06:27.912Z,100169.53
2023-01-08T09:09:15.674Z,100164.16
2023-01-08T09:12:04.232Z,100162.13
2023-01-08T09:14:51.822Z,100174.59
2023-01-08T09:17:38.640Z,100166.84
2023-01-08T09:20:26.644Z,100166.44
2023-01-08T09:23:13.335Z,100171.50
2023-01-08T09:26:01.320Z,100164.50
2023-01-08T09:28:49.513Z,100162.91
2023-01-08T09:31:36.604Z,100164.31
2023-01-08T09:34:23.171Z,100145.75
2023-01-08T09:37:10.053Z,100147.00
2023-01-08T09:40:02.223Z,100142.88
2023-01-08T09:42:55.678Z,100145.22
2023-01-08T09:45:46.897Z,100138.88
2023-01-08T09:48:37.102Z,100137.69
2023-01-08T09:51:32.179Z,100133.91
2023-01-08T09:54:21.304Z,100108.91
2023-01-08T09:57:13.703Z,100151.09
2023-01-08T10:00:00.477Z,100164.47
2023-01-08T10:02:49.231Z,100165.19
2023-01-08T10:05:35.749Z,100143.38
2023-01-08T10:08:22.484Z,100150.94
2023-01-08T10:11:11.543Z,100152.91
2023-01-08T10:13:58.913Z,100162.81
2023-01-08T10:16:51.402Z,100162.94
2023-01-08T10:19:39.612Z,100158.19
2023-01-08T10:22:30.073Z,100157.59
2023-01-08T10:25:19.812Z,100145.31
2023-01-08T10:28:06.402Z,100135.75
2023-01-08T10:30:54.285Z,100133.22
2023-01-08T10:33:43.896Z,100125.19
2023-01-08T10:36:32.275Z,100126.06
2023-01-08T10:39:24.259Z,100116.59
2023-01-08T10:42:12.178Z,100118.06
2023-01-08T10:45:01.499Z,100120.69
2023-01-08T10:47:51.523Z,100107.16
2023-01-08T10:50:38.238Z,100122.25
2023-01-08T10:53:29.593Z,100079.75
2023-01-08T10:56:22.057Z,100110.19
2023-01-08T10:59:19.384Z,100110.91
2023-01-08T11:02:20.828Z,100112.19
2023-01-08T11:05:11.538Z,100069.06
2023-01-08T11:08:00.688Z,100107.78
2023-01-08T11:10:56.092Z,100105.44
2023-01-08T11:13:42.843Z,100110.47
2023-01-08T11:16:34.705Z,100099.97
2023-01-08T11:19:25.671Z,100103.53
2023-01-08T11:22:20.128Z,100095.81
2023-01-08T11:25:15.464Z,100094.56
2023-01-08T11:28:04.960Z,100078.00
2023-01-08T11:30:56.658Z,100080.50
2023-01-08T11:33:45.845Z,100072.44
2023-01-08T11:36:37.434Z,100070.38
2023-01-08T11:39:23.954Z,100071.19
2023-01-08T11:42:35.890Z,100066.94
2023-01-08T11:45:32.333Z,100047.97
2023-01-08T11:48:32.899Z,100048.16
2023-01-08T11:51:37.490Z,100043.94
2023-01-08T11:54:39.292Z,100035.97
2023-01-08T11:57:37.284Z,100033.16
2023-01-08T12:00:39.268Z,100035.00
2023-01-08T12:03:32.452Z,100040.72
2023-01-08T12:06:29.510Z,100031.44
2023-01-08T12:09:29.022Z,100030.13
2023-01-08T12:12:30.658Z,100035.44
2023-01-08T12:15:26.593Z,100031.50
2023-01-08T12:18:30.883Z,100025.09
2023-01-08T12:21:27.396Z,100017.34
2023-01-08T12:24:31.427Z,100013.78
2023-01-08T12:27:48.659Z,100009.59
2023-01-08T12:30:48.163Z,100008.06
2023-01-08T12:33:40.769Z,100008.97
2023-01-08T12:36:34.442Z,100012.06
2023-01-08T12:39:25.802Z,100014.88
2023-01-08T12:42:17.905Z,100022.19
2023-01-08T12:45:08.506Z,100004.50
2023-01-08T12:47:59.376Z,100001.47
2023-01-08T12:50:57.979Z,100001.56
2023-01-08T12:53:55.145Z,100001.00
2023-01-08T12:56:47.784Z,99990.66
2023-01-08T12:59:43.477Z,100002.31
2023-01-08T13:02:37.791Z,99996.84
2023-01-08T13:05:34.602Z,100001.47
2023-01-08T13:08:32.968Z,99997.25
2023-01-08T13:11:27.676Z,99994.84
2023-01-08T13:14:14.938Z,100000.03
2023-01-08T13:17:07.128Z,99992.25
2023-01-08T13:19:56.059Z,99985.84
2023-01-08T13:22:43.250Z,99979.28
2023-01-08T13:25:35.054Z,99994.00
2023-01-08T13:28:29.883Z,99994.78
2023-01-08T13:31:29.004Z,99988.72
2023-01-08T13:34:22.229Z,99988.75
2023-01-08T13:37:23.168Z,99952.81
2023-01-08T13:40:39.300Z,99994.16
2023-01-08T13:43:30.479Z,99986.75
2023-01-08T13:46:19.545Z,99981.22
2023-01-08T13:49:08.241Z,99978.75
2023-01-08T13:51:54.785Z,99972.72
2023-01-08T13:54:44.997Z,99971.19
2023-01-08T13:57:39.111Z,99965.41
2023-01-08T14:00:35.384Z,99971.22
2023-01-08T14:03:27.026Z,99971.34
2023-01-08T14:06:18.332Z,99964.06
2023-01-08T14:09:06.170Z,99972.38
2023-01-08T14:11:55.818Z,99922.84
2023-01-08T14:14:49.160Z,99961.75
2023-01-08T14:17:36.091Z,99956.19
2023-01-08T14:20:32.583Z,99947.84
2023-01-08T14:23:24.691Z,99957.69
2023-01-08T14:26:32.537Z,99948.19
2023-01-08T14:29:21.908Z,99899.81
2023-01-08T14:32:19.096Z,99959.06
2023-01-08T14:35:09.446Z,99955.56
2023-01-08T14:37:56.450Z,99949.50
2023-01-08T14:40:46.490Z,99964.44
2023-01-08T14:43:36.278Z,99952.19
2023-01-08T14:46:26.265Z,99955.19
2023-01-08T14:49:21.707Z,99949.66
2023-01-08T14:52:13.231Z,99943.72
2023-01-08T14:55:04.231Z,99943.97
2023-01-08T14:57:53.349Z,99955.34
2023-01-08T15:00:39.735Z,99950.06
2023-01-08T15:03:36.262Z,99946.88
2023-01-08T15:06:29.394Z,99945.34
2023-01-08T15:09:23.258Z,99941.75
2023-01-08T15:12:24.758Z,99937.69
2023-01-08T15:15:12.396Z,99935.63
2023-01-08T15:18:03.785Z,99942.34
2023-01-08T15:20:52.474Z,99944.34
2023-01-08T15:23:54.028Z,99926.50
2023-01-08T15:26:44.248Z,99934.06
2023-01-08T15:29:35.532Z,99932.81
2023-01-08T15:32:31.247Z,99906.09
2023-01-08T15:35:30.712Z,99933.22
2023-01-08T15:38:23.236Z,99917.50
2023-01-08T15:41:42.384Z,99932.56
2023-01-08T15:44:31.872Z,99934.38
2023-01-08T15:47:23.194Z,99922.00
2023-01-08T15:50:16.146Z,99936.91
2023-01-08T15:53:06.299Z,99939.13
2023-01-08T15:55:56.088Z,99900.53
2023-01-08T15:58:46.660Z,99929.53
2023-01-08T16:01:37.678Z,99920.41
2023-01-08T16:04:26.561Z,99935.44
2023-01-08T16:07:16.283Z,99938.06
2023-01-08T16:10:05.395Z,99939.03
2023-01-08T16:12:57.241Z,99939.94
2023-01-08T16:15:53.756Z,99941.88
2023-01-08T16:18:45.110Z,99951.19
2023-01-08T16:21:35.353Z,99951.34
2023-01-08T16:24:30.359Z,99947.75
2023-01-08T16:27:22.267Z,99937.81
2023-01-08T16:30:17.184Z,99944.94
2023-01-08T16:33:11.523Z,99945.78
2023-01-08T16:36:00.873Z,99940.50
2023-01-08T16:38:50.885Z,99943.00
2023-01-08T16:41:40.054Z,99945.63
2023-01-08T16:44:30.498Z,99935.63
2023-01-08T16:47:19.893Z,99926.66
2023-01-08T16:50:17.125Z,99934.53
2023-01-08T16:53:05.837Z,99934.38
2023-01-08T16:55:54.136Z,99926.41
2023-01-08T16:58:41.876Z,99921.16
2023-01-08T17:01:29.641Z,99925.88
2023-01-08T17:04:17.372Z,99923.22
2023-01-08T17:07:05.405Z,99914.25
2023-01-08T17:09:51.987Z,99912.44
2023-01-08T17:12:38.767Z,99908.25
2023-01-08T17:15:26.755Z,99902.31
2023-01-08T17:18:18.181Z,99910.41
2023-01-08T17:21:12.552Z,99903.56
2023-01-08T17:24:10.615Z,99901.28
2023-01-08T17:27:02.947Z,99900.16
2023-01-08T17:29:57.300Z,99887.19
2023-01-08T17:32:54.930Z,99876.25
2023-01-08T17:35:41.632Z,99880.25
2023-01-08T17:38:29.070Z,99886.44
2023-01-08T17:41:37.665Z,99889.72
2023-01-08T17:44:28.386Z,99884.56
2023-01-08T17:47:18.453Z,99872.75
2023-01-08T17:50:07.992Z,99870.41
2023-01-08T17:53:01.060Z,99875.97
2023-01-08T17:55:50.412Z,99881.53
2023-01-08T17:58:41.275Z,99882.88
2023-01-08T18:01:34.762Z,99881.53
2023-01-08T18:04:25.997Z,99882.31
2023-01-08T18:07:16.037Z,99874.88
2023-01-08T18:10:06.757Z,99869.75
2023-01-08T18:12:58.062Z,99865.56
2023-01-08T18:15:49.827Z,99867.31
2023-01-08T18:18:38.378Z,99859.75
2023-01-08T18:21:29.332Z,99831.53
2023-01-08T18:24:19.546Z,99871.78
2023-01-08T18:27:09.950Z,99869.81
2023-01-08T18:29:59.624Z,99860.13
2023-01-08T18:32:54.825Z,99855.81
2023-01-08T18:35:45.760Z,99857.47
2023-01-08T18:38:38.087Z,99861.25
2023-01-08T18:41:46.762Z,99871.59
2023-01-08T18:44:37.201Z,99866.47
2023-01-08T18:47:30.504Z,99861.13
2023-01-08T18:50:21.882Z,99871.38
2023-01-08T18:53:14.605Z,99858.09
2023-01-08T18:56:04.966Z,99857.06
2023-01-08T18:58:56.245Z,99859.03
2023-01-08T19:01:46.260Z,99852.94
2023-01-08T19:04:37.076Z,99838.81
2023-01-08T19:07:27.915Z,99835.16
2023-01-08T19:10:19.163Z,99842.38
2023-01-08T19:13:10.268Z,99839.06
2023-01-08T19:16:01.794Z,99841.56
2023-01-08T19:18:55.661Z,99833.41
2023-01-08T19:21:48.093Z,99827.19
2023-01-08T19:24:40.567Z,99835.44
2023-01-08T19:27:31.551Z,99829.75
2023-01-08T19:30:19.539Z,99823.72
2023-01-08T19:33:09.388Z,99821.47
2023-01-08T19:36:05.684Z,99836.44
2023-01-08T19:38:59.382Z,99827.91
2023-01-08T19:42:12.373Z,99822.34
2023-01-08T19:45:13.315Z,99829.09
2023-01-08T19:48:04.815Z,99819.88
2023-01-08T19:51:01.778Z,99820.78
2023-01-08T19:53:51.674Z,99815.31
2023-01-08T19:56:41.647Z,99822.06
2023-01-08T19:59:38.552Z,99828.00
2023-01-08T20:02:30.032Z,99816.53
2023-01-08T20:05:19.371Z,99822.88
2023-01-08T20:08:09.476Z,99815.47
2023-01-08T20:11:01.932Z,99812.13
2023-01-08T20:13:56.832Z,99811.88
2023-01-08T20:16:48.077Z,99809.09
2023-01-08T20:19:40.548Z,99794.97
2023-01-08T20:22:31.192Z,99803.41
2023-01-08T20:25:20.980Z,99804.19
2023-01-08T20:28:09.979Z,99800.97
2023-01-08T20:30:59.014Z,99793.06
2023-01-08T20:33:50.600Z,99789.53
2023-01-08T20:36:44.322Z,99778.47
2023-01-08T20:39:33.755Z,99775.72
2023-01-08T20:42:33.314Z,99776.84
2023-01-08T20:45:35.590Z,99775.97
2023-01-08T20:48:28.491Z,99774.25
2023-01-08T20:51:23.488Z,99776.63
2023-01-08T20:54:15.408Z,99777.44
2023-01-08T20:57:07.275Z,99769.59
2023-01-08T21:00:00.312Z,99746.81
2023-01-08T21:02:53.404Z,99762.06
2023-01-08T21:05:45.443Z,99752.81
2023-01-08T21:08:50.786Z,99746.78
2023-01-08T21:11:42.610Z,99747.06
2023-01-08T21:14:37.650Z,99743.56
2023-01-08T21:17:30.326Z,99752.63
2023-01-08T21:20:20.130Z,99749.75
2023-01-08T21:23:15.815Z,99741.84
2023-01-08T21:26:13.769Z,99745.59
2023-01-08T21:29:09.658Z,99743.06
2023-01-08T21:31:57.556Z,99746.50
2023-01-08T21:34:44.756Z,99737.31
2023-01-08T21:37:32.655Z,99729.91
2023-01-08T21:40:20.204Z,99742.16
2023-01-08T21:43:26.048Z,99714.06
2023-01-08T21:46:13.849Z,99740.00
2023-01-08T21:49:06.847Z,99730.84
2023-01-08T21:52:14.047Z,99726.28
2023-01-08T21:55:04.785Z,99723.84
2023-01-08T21:57:56.104Z,99720.59
2023-01-08T22:00:52.349Z,99718.97
2023-01-08T22:03:43.462Z,99719.00
2023-01-08T22:06:33.014Z,99717.34
2023-01-08T22:09:20.217Z,99712.75
2023-01-08T22:12:13.391Z,99709.22
2023-01-08T22:15:23.382Z,99717.81
2023-01-08T22:18:22.121Z,99684.28
2023-01-08T22:21:19.418Z,99692.03
2023-01-08T22:24:18.404Z,99689.53
2023-01-08T22:27:11.302Z,99674.81
2023-01-08T22:30:03.323Z,99680.75
2023-01-08T22:32:57.088Z,99673.66
2023-01-08T22:35:48.017Z,99671.34
2023-01-08T22:38:36.967Z,99662.47
2023-01-08T22:41:26.635Z,99667.97
2023-01-08T22:44:14.517Z,99628.22
2023-01-08T22:47:03.494Z,99660.06
2023-01-08T22:49:53.116Z,99649.25
2023-01-08T22:52:41.618Z,99649.19
2023-01-08T22:55:29.649Z,99652.38
2023-01-08T22:58:18.797Z,99652.78
2023-01-08T23:01:07.127Z,99656.28
2023-01-08T23:03:57.204Z,99655.38
2023-01-08T23:06:43.919Z,99656.66
2023-01-08T23:09:32.058Z,99654.41
2023-01-08T23:12:18.706Z,99647.81
2023-01-08T23:15:07.531Z,99638.63
2023-01-08T23:17:54.355Z,99637.78
2023-01-08T23:20:40.856Z,99635.72
2023-01-08T23:23:27.514Z,99618.50
2023-01-08T23:26:18.743Z,99629.97
2023-01-08T23:29:05.609Z,99619.59
2023-01-08T23:31:52.355Z,99616.78
2023-01-08T23:34:39.135Z,99620.97
2023-01-08T23:37:26.004Z,99614.16
2023-01-08T23:40:13.612Z,99613.69
2023-01-08T23:43:01.419Z,99608.41
2023-01-08T23:45:48.152Z,99608.72
2023-01-08T23:48:35.528Z,99618.59
2023-01-08T23:51:23.544Z,99617.13
2023-01-08T23:54:10.848Z,99603.97
2023-01-08T23:56:57.678Z,99611.13
2023-01-08T23:59:46.555Z,99611.38
